sensor_id;sensor_type;location;lat;lon;timestamp;temperature;humidity
4795;DHT22;2411;47.060;15.064;2024-03-23T00:54:13;7.80;1.00
4795;DHT22;2411;47.060;15.064;2024-03-23T00:56:39;7.80;1.00
4795;DHT22;2411;47.060;15.064;2024-03-23T00:59:05;7.70;1.00
4795;DHT22;2411;47.060;15.064;2024-03-23T01:01:31;7.60;1.00
4795;DHT22;2411;47.060;15.064;2024-03-23T01:03:57;7.70;1.00
4795;DHT22;2411;47.060;15.064;2024-03-23T01:06:23;7.60;1.00
4795;DHT22;2411;47.060;15.064;2024-03-23T01:08:49;7.40;1.00
4795;DHT22;2411;47.060;15.064;2024-03-23T01:11:15;7.40;1.00
4795;DHT22;2411;47.060;15.064;2024-03-23T01:13:41;7.40;1.00
4795;DHT22;2411;47.060;15.064;2024-03-23T01:16:07;7.50;1.00
4795;DHT22;2411;47.060;15.064;2024-03-23T01:18:33;7.20;1.00
4795;DHT22;2411;47.060;15.064;2024-03-23T01:20:59;7.30;1.00
4795;DHT22;2411;47.060;15.064;2024-03-23T01:23:25;7.30;1.00
4795;DHT22;2411;47.060;15.064;2024-03-23T01:25:52;7.40;1.00
4795;DHT22;2411;47.060;15.064;2024-03-23T01:28:20;7.50;1.00
4795;DHT22;2411;47.060;15.064;2024-03-23T01:30:46;7.50;1.00
4795;DHT22;2411;47.060;15.064;2024-03-23T01:33:12;7.40;1.00
4795;DHT22;2411;47.060;15.064;2024-03-23T01:35:38;7.40;1.00
4795;DHT22;2411;47.060;15.064;2024-03-23T01:38:04;7.40;1.00
4795;DHT22;2411;47.060;15.064;2024-03-23T01:40:30;7.40;1.00
4795;DHT22;2411;47.060;15.064;2024-03-23T01:42:59;7.20;1.00
4795;DHT22;2411;47.060;15.064;2024-03-23T01:45:27;7.10;1.00
4795;DHT22;2411;47.060;15.064;2024-03-23T01:47:53;7.10;1.00
4795;DHT22;2411;47.060;15.064;2024-03-23T01:50:20;7.30;1.00
4795;DHT22;2411;47.060;15.064;2024-03-23T01:52:47;7.30;1.00
4795;DHT22;2411;47.060;15.064;2024-03-23T01:55:14;7.50;1.00
4795;DHT22;2411;47.060;15.064;2024-03-23T01:57:40;7.70;1.00
4795;DHT22;2411;47.060;15.064;2024-03-23T02:00:06;7.70;1.00
4795;DHT22;2411;47.060;15.064;2024-03-23T02:02:32;7.80;1.00
4795;DHT22;2411;47.060;15.064;2024-03-23T02:04:58;7.70;1.00
4795;DHT22;2411;47.060;15.064;2024-03-23T02:07:24;7.60;1.00
4795;DHT22;2411;47.060;15.064;2024-03-23T02:09:51;7.50;1.00
4795;DHT22;2411;47.060;15.064;2024-03-23T02:12:18;7.50;1.00
4795;DHT22;2411;47.060;15.064;2024-03-23T02:14:44;7.50;1.00
4795;DHT22;2411;47.060;15.064;2024-03-23T02:17:10;7.40;1.00
4795;DHT22;2411;47.060;15.064;2024-03-23T02:19:36;7.20;1.00
4795;DHT22;2411;47.060;15.064;2024-03-23T02:22:02;6.90;1.00
4795;DHT22;2411;47.060;15.064;2024-03-23T02:24:29;6.70;1.00
4795;DHT22;2411;47.060;15.064;2024-03-23T02:26:55;6.60;1.00
4795;DHT22;2411;47.060;15.064;2024-03-23T02:29:21;6.60;1.00
4795;DHT22;2411;47.060;15.064;2024-03-23T02:31:47;6.70;1.00
4795;DHT22;2411;47.060;15.064;2024-03-23T02:34:13;6.80;1.00
4795;DHT22;2411;47.060;15.064;2024-03-23T02:36:39;6.80;1.00
4795;DHT22;2411;47.060;15.064;2024-03-23T02:39:05;6.70;1.00
4795;DHT22;2411;47.060;15.064;2024-03-23T02:41:31;6.60;1.00
4795;DHT22;2411;47.060;15.064;2024-03-23T02:43:57;6.50;1.00
4795;DHT22;2411;47.060;15.064;2024-03-23T02:46:23;6.50;1.00
4795;DHT22;2411;47.060;15.064;2024-03-23T02:48:49;6.40;1.00
4795;DHT22;2411;47.060;15.064;2024-03-23T02:51:15;6.50;1.00
4795;DHT22;2411;47.060;15.064;2024-03-23T02:53:41;6.50;1.00
4795;DHT22;2411;47.060;15.064;2024-03-23T02:56:07;6.60;1.00
4795;DHT22;2411;47.060;15.064;2024-03-23T02:58:34;6.60;1.00
4795;DHT22;2411;47.060;15.064;2024-03-23T03:01:00;6.70;1.00
4795;DHT22;2411;47.060;15.064;2024-03-23T03:03:26;6.90;1.00
4795;DHT22;2411;47.060;15.064;2024-03-23T03:05:56;6.50;1.00
4795;DHT22;2411;47.060;15.064;2024-03-23T03:08:22;6.50;1.00
4795;DHT22;2411;47.060;15.064;2024-03-23T03:10:48;6.50;1.00
4795;DHT22;2411;47.060;15.064;2024-03-23T03:13:14;6.40;1.00
4795;DHT22;2411;47.060;15.064;2024-03-23T03:15:43;6.40;1.00
4795;DHT22;2411;47.060;15.064;2024-03-23T03:18:10;6.50;1.00
4795;DHT22;2411;47.060;15.064;2024-03-23T03:20:39;6.50;1.00
4795;DHT22;2411;47.060;15.064;2024-03-23T03:23:06;6.50;1.00
4795;DHT22;2411;47.060;15.064;2024-03-23T03:25:32;6.60;1.00
4795;DHT22;2411;47.060;15.064;2024-03-23T03:27:59;6.50;1.00
4795;DHT22;2411;47.060;15.064;2024-03-23T03:30:25;6.30;1.00
4795;DHT22;2411;47.060;15.064;2024-03-23T03:32:53;6.10;1.00
4795;DHT22;2411;47.060;15.064;2024-03-23T03:35:19;6.20;1.00
4795;DHT22;2411;47.060;15.064;2024-03-23T03:37:45;6.10;1.00
4795;DHT22;2411;47.060;15.064;2024-03-23T03:40:12;6.10;1.00
4795;DHT22;2411;47.060;15.064;2024-03-23T03:42:41;6.10;1.00
4795;DHT22;2411;47.060;15.064;2024-03-23T03:45:07;6.10;1.00
4795;DHT22;2411;47.060;15.064;2024-03-23T03:47:33;6.10;1.00
4795;DHT22;2411;47.060;15.064;2024-03-23T03:49:59;6.20;1.00
4795;DHT22;2411;47.060;15.064;2024-03-23T03:52:26;6.40;1.00
4795;DHT22;2411;47.060;15.064;2024-03-23T03:54:55;6.60;1.00
4795;DHT22;2411;47.060;15.064;2024-03-23T03:57:21;6.70;1.00
4795;DHT22;2411;47.060;15.064;2024-03-23T03:59:47;6.80;1.00
4795;DHT22;2411;47.060;15.064;2024-03-23T04:02:13;6.90;1.00
4795;DHT22;2411;47.060;15.064;2024-03-23T04:04:39;7.00;1.00
4795;DHT22;2411;47.060;15.064;2024-03-23T04:07:05;6.80;1.00
4795;DHT22;2411;47.060;15.064;2024-03-23T04:09:31;6.70;1.00
4795;DHT22;2411;47.060;15.064;2024-03-23T04:11:57;6.60;1.00
4795;DHT22;2411;47.060;15.064;2024-03-23T04:14:23;6.50;1.00
4795;DHT22;2411;47.060;15.064;2024-03-23T04:16:49;6.60;1.00
4795;DHT22;2411;47.060;15.064;2024-03-23T04:19:15;6.70;1.00
4795;DHT22;2411;47.060;15.064;2024-03-23T04:21:41;6.70;1.00
4795;DHT22;2411;47.060;15.064;2024-03-23T04:24:07;6.90;1.00
4795;DHT22;2411;47.060;15.064;2024-03-23T04:26:43;6.90;1.00
4795;DHT22;2411;47.060;15.064;2024-03-23T04:29:09;7.00;1.00
4795;DHT22;2411;47.060;15.064;2024-03-23T04:31:35;6.90;1.00
4795;DHT22;2411;47.060;15.064;2024-03-23T04:34:01;7.00;1.00
4795;DHT22;2411;47.060;15.064;2024-03-23T04:36:27;7.00;1.00
4795;DHT22;2411;47.060;15.064;2024-03-23T04:38:53;7.00;1.00
4795;DHT22;2411;47.060;15.064;2024-03-23T04:41:19;7.00;1.00
4795;DHT22;2411;47.060;15.064;2024-03-23T04:43:45;7.00;1.00
4795;DHT22;2411;47.060;15.064;2024-03-23T04:46:11;7.00;1.00
4795;DHT22;2411;47.060;15.064;2024-03-23T04:48:37;6.90;1.00
4795;DHT22;2411;47.060;15.064;2024-03-23T04:51:04;6.90;1.00
4795;DHT22;2411;47.060;15.064;2024-03-23T04:53:30;6.90;1.00
4795;DHT22;2411;47.060;15.064;2024-03-23T04:55:56;6.90;1.00
4795;DHT22;2411;47.060;15.064;2024-03-23T04:58:23;7.00;1.00
4795;DHT22;2411;47.060;15.064;2024-03-23T05:00:56;6.80;1.00
4795;DHT22;2411;47.060;15.064;2024-03-23T05:03:23;7.00;1.00
4795;DHT22;2411;47.060;15.064;2024-03-23T05:05:50;7.10;1.00
4795;DHT22;2411;47.060;15.064;2024-03-23T05:08:16;7.10;1.00
4795;DHT22;2411;47.060;15.064;2024-03-23T05:10:43;7.30;1.00
4795;DHT22;2411;47.060;15.064;2024-03-23T05:13:09;7.40;1.00
4795;DHT22;2411;47.060;15.064;2024-03-23T05:15:35;7.40;1.00
4795;DHT22;2411;47.060;15.064;2024-03-23T05:18:02;7.40;1.00
4795;DHT22;2411;47.060;15.064;2024-03-23T05:20:28;7.60;1.00
4795;DHT22;2411;47.060;15.064;2024-03-23T05:22:55;7.70;1.00
4795;DHT22;2411;47.060;15.064;2024-03-23T05:25:21;7.90;1.00
4795;DHT22;2411;47.060;15.064;2024-03-23T05:27:47;7.90;1.00
4795;DHT22;2411;47.060;15.064;2024-03-23T05:30:13;7.70;1.00
4795;DHT22;2411;47.060;15.064;2024-03-23T05:32:40;7.60;1.00
4795;DHT22;2411;47.060;15.064;2024-03-23T05:35:08;7.90;1.00
4795;DHT22;2411;47.060;15.064;2024-03-23T05:37:35;8.20;1.00
4795;DHT22;2411;47.060;15.064;2024-03-23T05:40:01;8.20;1.00
4795;DHT22;2411;47.060;15.064;2024-03-23T05:42:29;8.20;1.00
4795;DHT22;2411;47.060;15.064;2024-03-23T05:44:55;7.90;1.00
4795;DHT22;2411;47.060;15.064;2024-03-23T05:47:21;7.80;1.00
4795;DHT22;2411;47.060;15.064;2024-03-23T05:49:47;7.70;1.00
4795;DHT22;2411;47.060;15.064;2024-03-23T05:52:13;7.50;1.00
4795;DHT22;2411;47.060;15.064;2024-03-23T05:54:39;7.40;1.00
4795;DHT22;2411;47.060;15.064;2024-03-23T05:57:05;7.50;1.00
4795;DHT22;2411;47.060;15.064;2024-03-23T05:59:34;7.60;1.00
4795;DHT22;2411;47.060;15.064;2024-03-23T06:02:00;7.70;1.00
4795;DHT22;2411;47.060;15.064;2024-03-23T06:04:26;7.80;1.00
4795;DHT22;2411;47.060;15.064;2024-03-23T06:06:52;7.90;1.00
4795;DHT22;2411;47.060;15.064;2024-03-23T06:09:18;8.00;1.00
4795;DHT22;2411;47.060;15.064;2024-03-23T06:11:45;8.10;1.00
4795;DHT22;2411;47.060;15.064;2024-03-23T06:14:11;8.20;1.00
4795;DHT22;2411;47.060;15.064;2024-03-23T06:16:38;8.30;1.00
4795;DHT22;2411;47.060;15.064;2024-03-23T06:19:04;8.30;1.00
4795;DHT22;2411;47.060;15.064;2024-03-23T06:21:33;8.40;1.00
4795;DHT22;2411;47.060;15.064;2024-03-23T06:23:59;8.50;1.00
4795;DHT22;2411;47.060;15.064;2024-03-23T06:26:25;8.60;1.00
4795;DHT22;2411;47.060;15.064;2024-03-23T06:28:51;8.60;1.00
4795;DHT22;2411;47.060;15.064;2024-03-23T06:31:17;8.70;1.00
4795;DHT22;2411;47.060;15.064;2024-03-23T06:33:43;8.70;1.00
4795;DHT22;2411;47.060;15.064;2024-03-23T06:36:10;8.70;1.00
4795;DHT22;2411;47.060;15.064;2024-03-23T06:38:37;8.70;1.00
4795;DHT22;2411;47.060;15.064;2024-03-23T06:41:06;8.70;1.00
4795;DHT22;2411;47.060;15.064;2024-03-23T06:43:32;8.60;1.00
4795;DHT22;2411;47.060;15.064;2024-03-23T06:45:58;8.50;1.00
4795;DHT22;2411;47.060;15.064;2024-03-23T06:48:24;8.60;1.00
4795;DHT22;2411;47.060;15.064;2024-03-23T06:50:58;8.70;1.00
4795;DHT22;2411;47.060;15.064;2024-03-23T06:53:24;8.80;1.00
4795;DHT22;2411;47.060;15.064;2024-03-23T06:55:51;8.80;1.00
4795;DHT22;2411;47.060;15.064;2024-03-23T06:58:20;9.00;1.00
4795;DHT22;2411;47.060;15.064;2024-03-23T07:00:46;9.10;1.00
4795;DHT22;2411;47.060;15.064;2024-03-23T07:03:12;9.20;1.00
4795;DHT22;2411;47.060;15.064;2024-03-23T07:05:38;9.30;1.00
4795;DHT22;2411;47.060;15.064;2024-03-23T07:08:04;9.40;1.00
4795;DHT22;2411;47.060;15.064;2024-03-23T07:10:30;9.50;1.00
4795;DHT22;2411;47.060;15.064;2024-03-23T07:12:56;9.70;1.00
4795;DHT22;2411;47.060;15.064;2024-03-23T07:15:22;9.80;1.00
4795;DHT22;2411;47.060;15.064;2024-03-23T07:17:48;9.90;1.00
4795;DHT22;2411;47.060;15.064;2024-03-23T07:20:15;10.10;1.00
4795;DHT22;2411;47.060;15.064;2024-03-23T07:22:41;10.20;1.00
4795;DHT22;2411;47.060;15.064;2024-03-23T07:25:07;10.30;1.00
4795;DHT22;2411;47.060;15.064;2024-03-23T07:27:33;10.60;1.00
4795;DHT22;2411;47.060;15.064;2024-03-23T07:29:59;10.60;1.00
4795;DHT22;2411;47.060;15.064;2024-03-23T07:32:27;10.80;1.00
4795;DHT22;2411;47.060;15.064;2024-03-23T07:34:53;10.90;1.00
4795;DHT22;2411;47.060;15.064;2024-03-23T07:37:19;10.90;1.00
4795;DHT22;2411;47.060;15.064;2024-03-23T07:39:45;11.00;1.00
4795;DHT22;2411;47.060;15.064;2024-03-23T07:42:11;11.00;1.00
4795;DHT22;2411;47.060;15.064;2024-03-23T07:44:37;11.10;1.00
4795;DHT22;2411;47.060;15.064;2024-03-23T07:47:03;11.10;1.00
4795;DHT22;2411;47.060;15.064;2024-03-23T07:49:29;11.10;1.00
4795;DHT22;2411;47.060;15.064;2024-03-23T07:51:55;11.00;1.00
4795;DHT22;2411;47.060;15.064;2024-03-23T07:54:21;11.10;1.00
4795;DHT22;2411;47.060;15.064;2024-03-23T07:56:47;11.10;1.00
4795;DHT22;2411;47.060;15.064;2024-03-23T07:59:13;11.20;1.00
4795;DHT22;2411;47.060;15.064;2024-03-23T08:01:39;11.10;1.00
4795;DHT22;2411;47.060;15.064;2024-03-23T08:04:05;11.00;1.00
4795;DHT22;2411;47.060;15.064;2024-03-23T08:06:31;11.00;1.00
4795;DHT22;2411;47.060;15.064;2024-03-23T08:08:58;11.00;1.00
4795;DHT22;2411;47.060;15.064;2024-03-23T08:11:28;11.20;1.00
4795;DHT22;2411;47.060;15.064;2024-03-23T08:13:55;11.20;1.00
4795;DHT22;2411;47.060;15.064;2024-03-23T08:16:22;11.30;1.00
4795;DHT22;2411;47.060;15.064;2024-03-23T08:18:48;11.40;1.00
4795;DHT22;2411;47.060;15.064;2024-03-23T08:21:14;11.60;1.00
4795;DHT22;2411;47.060;15.064;2024-03-23T08:23:40;11.70;1.00
4795;DHT22;2411;47.060;15.064;2024-03-23T08:26:13;11.90;1.00
4795;DHT22;2411;47.060;15.064;2024-03-23T08:28:39;12.00;1.00
4795;DHT22;2411;47.060;15.064;2024-03-23T08:31:07;12.00;1.00
4795;DHT22;2411;47.060;15.064;2024-03-23T08:33:33;12.10;1.00
4795;DHT22;2411;47.060;15.064;2024-03-23T08:36:05;12.10;1.00
4795;DHT22;2411;47.060;15.064;2024-03-23T08:38:31;12.20;1.00
4795;DHT22;2411;47.060;15.064;2024-03-23T08:41:02;12.20;1.00
4795;DHT22;2411;47.060;15.064;2024-03-23T08:43:29;12.30;1.00
4795;DHT22;2411;47.060;15.064;2024-03-23T08:46:05;12.30;1.00
4795;DHT22;2411;47.060;15.064;2024-03-23T08:48:42;12.40;1.00
4795;DHT22;2411;47.060;15.064;2024-03-23T08:51:12;12.60;1.00
4795;DHT22;2411;47.060;15.064;2024-03-23T08:53:39;12.60;1.00
4795;DHT22;2411;47.060;15.064;2024-03-23T08:56:07;12.80;1.00
4795;DHT22;2411;47.060;15.064;2024-03-23T08:58:34;12.90;1.00
4795;DHT22;2411;47.060;15.064;2024-03-23T09:01:11;13.20;1.00
4795;DHT22;2411;47.060;15.064;2024-03-23T09:03:39;13.30;1.00
4795;DHT22;2411;47.060;15.064;2024-03-23T09:06:12;13.40;1.00
4795;DHT22;2411;47.060;15.064;2024-03-23T09:08:39;13.70;1.00
4795;DHT22;2411;47.060;15.064;2024-03-23T09:11:12;14.00;1.00
4795;DHT22;2411;47.060;15.064;2024-03-23T09:13:38;14.30;1.00
4795;DHT22;2411;47.060;15.064;2024-03-23T09:16:05;14.60;1.00
4795;DHT22;2411;47.060;15.064;2024-03-23T09:18:33;14.90;1.00
4795;DHT22;2411;47.060;15.064;2024-03-23T09:20:59;15.20;1.00
4795;DHT22;2411;47.060;15.064;2024-03-23T09:23:25;15.50;1.00
4795;DHT22;2411;47.060;15.064;2024-03-23T09:25:51;15.70;1.00
4795;DHT22;2411;47.060;15.064;2024-03-23T09:28:17;15.80;1.00
4795;DHT22;2411;47.060;15.064;2024-03-23T09:30:43;16.10;1.00
4795;DHT22;2411;47.060;15.064;2024-03-23T09:33:10;16.30;1.00
4795;DHT22;2411;47.060;15.064;2024-03-23T09:35:41;16.60;1.00
4795;DHT22;2411;47.060;15.064;2024-03-23T09:38:07;16.90;1.00
4795;DHT22;2411;47.060;15.064;2024-03-23T09:40:39;17.00;1.00
4795;DHT22;2411;47.060;15.064;2024-03-23T09:43:06;17.10;1.00
4795;DHT22;2411;47.060;15.064;2024-03-23T09:45:35;17.50;1.00
4795;DHT22;2411;47.060;15.064;2024-03-23T09:48:01;17.80;1.00
4795;DHT22;2411;47.060;15.064;2024-03-23T09:50:27;17.90;1.00
4795;DHT22;2411;47.060;15.064;2024-03-23T09:52:54;17.80;1.00
4795;DHT22;2411;47.060;15.064;2024-03-23T09:55:20;17.80;1.00
4795;DHT22;2411;47.060;15.064;2024-03-23T09:57:45;17.80;1.00
4795;DHT22;2411;47.060;15.064;2024-03-23T10:00:12;17.70;1.00
4795;DHT22;2411;47.060;15.064;2024-03-23T10:02:38;17.60;1.00
4795;DHT22;2411;47.060;15.064;2024-03-23T10:05:09;17.60;1.00
4795;DHT22;2411;47.060;15.064;2024-03-23T10:07:45;17.40;1.00
4795;DHT22;2411;47.060;15.064;2024-03-23T10:10:11;17.20;1.00
4795;DHT22;2411;47.060;15.064;2024-03-23T10:12:44;17.10;1.00
4795;DHT22;2411;47.060;15.064;2024-03-23T10:17:44;16.90;1.00
4795;DHT22;2411;47.060;15.064;2024-03-23T10:20:11;16.90;1.00
4795;DHT22;2411;47.060;15.064;2024-03-23T10:22:40;16.70;1.00
4795;DHT22;2411;47.060;15.064;2024-03-23T10:25:10;16.50;1.00
4795;DHT22;2411;47.060;15.064;2024-03-23T10:27:36;16.60;1.00
4795;DHT22;2411;47.060;15.064;2024-03-23T10:30:13;16.80;1.00
4795;DHT22;2411;47.060;15.064;2024-03-23T10:32:40;17.20;1.00
4795;DHT22;2411;47.060;15.064;2024-03-23T10:35:22;17.30;1.00
4795;DHT22;2411;47.060;15.064;2024-03-23T10:37:48;17.40;1.00
4795;DHT22;2411;47.060;15.064;2024-03-23T10:40:18;17.60;1.00
4795;DHT22;2411;47.060;15.064;2024-03-23T10:42:47;17.60;1.00
4795;DHT22;2411;47.060;15.064;2024-03-23T10:45:13;17.30;1.00
4795;DHT22;2411;47.060;15.064;2024-03-23T10:47:39;17.20;1.00
4795;DHT22;2411;47.060;15.064;2024-03-23T10:50:05;17.40;1.00
4795;DHT22;2411;47.060;15.064;2024-03-23T10:52:33;17.60;1.00
4795;DHT22;2411;47.060;15.064;2024-03-23T10:55:02;17.80;1.00
4795;DHT22;2411;47.060;15.064;2024-03-23T10:57:53;17.80;1.00
4795;DHT22;2411;47.060;15.064;2024-03-23T11:00:20;17.70;1.00
4795;DHT22;2411;47.060;15.064;2024-03-23T11:02:50;17.70;1.00
4795;DHT22;2411;47.060;15.064;2024-03-23T11:05:31;17.60;1.00
4795;DHT22;2411;47.060;15.064;2024-03-23T11:07:58;17.70;1.00
4795;DHT22;2411;47.060;15.064;2024-03-23T11:10:31;17.70;1.00
4795;DHT22;2411;47.060;15.064;2024-03-23T11:13:21;17.70;1.00
4795;DHT22;2411;47.060;15.064;2024-03-23T11:15:48;17.70;1.00
4795;DHT22;2411;47.060;15.064;2024-03-23T11:18:20;17.80;1.00
4795;DHT22;2411;47.060;15.064;2024-03-23T11:20:47;17.80;1.00
4795;DHT22;2411;47.060;15.064;2024-03-23T11:23:28;18.00;1.00
4795;DHT22;2411;47.060;15.064;2024-03-23T11:25:54;18.00;1.00
4795;DHT22;2411;47.060;15.064;2024-03-23T11:28:20;18.10;1.00
4795;DHT22;2411;47.060;15.064;2024-03-23T11:30:47;18.20;1.00
4795;DHT22;2411;47.060;15.064;2024-03-23T11:33:13;18.30;1.00
4795;DHT22;2411;47.060;15.064;2024-03-23T11:35:40;18.30;1.00
4795;DHT22;2411;47.060;15.064;2024-03-23T11:38:14;18.30;1.00
4795;DHT22;2411;47.060;15.064;2024-03-23T11:43:08;18.40;1.00
4795;DHT22;2411;47.060;15.064;2024-03-23T11:45:48;18.50;1.00
4795;DHT22;2411;47.060;15.064;2024-03-23T11:48:19;18.60;1.00
4795;DHT22;2411;47.060;15.064;2024-03-23T11:50:47;18.60;1.00
4795;DHT22;2411;47.060;15.064;2024-03-23T11:53:23;18.60;1.00
4795;DHT22;2411;47.060;15.064;2024-03-23T11:55:51;18.60;1.00
4795;DHT22;2411;47.060;15.064;2024-03-23T11:58:22;18.70;1.00
4795;DHT22;2411;47.060;15.064;2024-03-23T12:03:18;18.80;1.00
4795;DHT22;2411;47.060;15.064;2024-03-23T12:05:49;18.70;1.00
4795;DHT22;2411;47.060;15.064;2024-03-23T12:10:44;18.40;1.00
4795;DHT22;2411;47.060;15.064;2024-03-23T12:13:11;18.40;1.00
4795;DHT22;2411;47.060;15.064;2024-03-23T12:15:40;18.50;1.00
4795;DHT22;2411;47.060;15.064;2024-03-23T12:18:07;18.50;1.00
4795;DHT22;2411;47.060;15.064;2024-03-23T12:20:33;18.50;1.00
4795;DHT22;2411;47.060;15.064;2024-03-23T12:23:07;18.40;1.00
4795;DHT22;2411;47.060;15.064;2024-03-23T12:25:34;18.10;1.00
4795;DHT22;2411;47.060;15.064;2024-03-23T12:28:01;18.10;1.00
4795;DHT22;2411;47.060;15.064;2024-03-23T12:30:27;18.10;1.00
4795;DHT22;2411;47.060;15.064;2024-03-23T12:32:53;18.10;1.00
4795;DHT22;2411;47.060;15.064;2024-03-23T12:35:19;18.30;1.00
4795;DHT22;2411;47.060;15.064;2024-03-23T12:37:45;18.40;1.00
4795;DHT22;2411;47.060;15.064;2024-03-23T12:40:11;18.40;1.00
4795;DHT22;2411;47.060;15.064;2024-03-23T12:42:37;18.50;1.00
4795;DHT22;2411;47.060;15.064;2024-03-23T12:45:04;18.60;1.00
4795;DHT22;2411;47.060;15.064;2024-03-23T12:47:31;18.50;1.00
4795;DHT22;2411;47.060;15.064;2024-03-23T12:49:57;18.60;1.00
4795;DHT22;2411;47.060;15.064;2024-03-23T12:52:23;18.80;1.00
4795;DHT22;2411;47.060;15.064;2024-03-23T12:54:56;18.90;1.00
4795;DHT22;2411;47.060;15.064;2024-03-23T12:57:26;19.00;1.00
4795;DHT22;2411;47.060;15.064;2024-03-23T12:59:53;19.10;1.00
4795;DHT22;2411;47.060;15.064;2024-03-23T13:02:22;19.20;1.00
4795;DHT22;2411;47.060;15.064;2024-03-23T13:04:55;19.20;1.00
4795;DHT22;2411;47.060;15.064;2024-03-23T13:07:22;19.50;1.00
4795;DHT22;2411;47.060;15.064;2024-03-23T13:09:51;19.40;1.00
4795;DHT22;2411;47.060;15.064;2024-03-23T13:12:21;19.60;1.00
4795;DHT22;2411;47.060;15.064;2024-03-23T13:14:47;19.90;1.00
4795;DHT22;2411;47.060;15.064;2024-03-23T13:17:14;19.90;1.00
4795;DHT22;2411;47.060;15.064;2024-03-23T13:19:41;20.20;1.00
4795;DHT22;2411;47.060;15.064;2024-03-23T13:22:07;20.30;1.00
4795;DHT22;2411;47.060;15.064;2024-03-23T13:24:34;20.30;1.00
4795;DHT22;2411;47.060;15.064;2024-03-23T13:27:00;19.80;1.00
4795;DHT22;2411;47.060;15.064;2024-03-23T13:29:26;19.80;1.00
4795;DHT22;2411;47.060;15.064;2024-03-23T13:31:52;19.70;1.00
4795;DHT22;2411;47.060;15.064;2024-03-23T13:34:19;19.40;1.00
4795;DHT22;2411;47.060;15.064;2024-03-23T13:36:46;19.00;1.00
4795;DHT22;2411;47.060;15.064;2024-03-23T13:39:13;19.00;1.00
4795;DHT22;2411;47.060;15.064;2024-03-23T13:41:43;19.00;1.00
4795;DHT22;2411;47.060;15.064;2024-03-23T13:44:11;19.20;1.00
4795;DHT22;2411;47.060;15.064;2024-03-23T13:46:39;19.10;1.00
4795;DHT22;2411;47.060;15.064;2024-03-23T13:49:05;18.90;1.00
4795;DHT22;2411;47.060;15.064;2024-03-23T13:51:32;19.00;1.00
4795;DHT22;2411;47.060;15.064;2024-03-23T13:53:58;19.20;1.00
4795;DHT22;2411;47.060;15.064;2024-03-23T13:56:30;19.20;1.00
4795;DHT22;2411;47.060;15.064;2024-03-23T13:58:56;19.60;1.00
4795;DHT22;2411;47.060;15.064;2024-03-23T14:01:23;19.70;1.00
4795;DHT22;2411;47.060;15.064;2024-03-23T14:03:50;19.50;1.00
4795;DHT22;2411;47.060;15.064;2024-03-23T14:06:16;19.40;1.00
4795;DHT22;2411;47.060;15.064;2024-03-23T14:08:42;19.50;1.00
4795;DHT22;2411;47.060;15.064;2024-03-23T14:11:09;19.60;1.00
4795;DHT22;2411;47.060;15.064;2024-03-23T14:13:35;19.40;1.00
4795;DHT22;2411;47.060;15.064;2024-03-23T14:16:02;19.40;1.00
4795;DHT22;2411;47.060;15.064;2024-03-23T14:18:28;19.00;1.00
4795;DHT22;2411;47.060;15.064;2024-03-23T14:20:59;19.10;1.00
4795;DHT22;2411;47.060;15.064;2024-03-23T14:23:29;18.80;1.00
4795;DHT22;2411;47.060;15.064;2024-03-23T14:25:56;18.90;1.00
4795;DHT22;2411;47.060;15.064;2024-03-23T14:28:25;18.80;1.00
4795;DHT22;2411;47.060;15.064;2024-03-23T14:30:54;19.00;1.00
4795;DHT22;2411;47.060;15.064;2024-03-23T14:33:21;18.90;1.00
4795;DHT22;2411;47.060;15.064;2024-03-23T14:35:55;19.00;1.00
4795;DHT22;2411;47.060;15.064;2024-03-23T14:38:24;19.20;1.00
4795;DHT22;2411;47.060;15.064;2024-03-23T14:40:50;19.20;1.00
4795;DHT22;2411;47.060;15.064;2024-03-23T14:43:18;19.20;1.00
4795;DHT22;2411;47.060;15.064;2024-03-23T14:46:10;19.00;1.00
4795;DHT22;2411;47.060;15.064;2024-03-23T14:48:37;19.20;1.00
4795;DHT22;2411;47.060;15.064;2024-03-23T14:51:04;18.90;1.00
4795;DHT22;2411;47.060;15.064;2024-03-23T14:53:35;18.80;1.00
4795;DHT22;2411;47.060;15.064;2024-03-23T14:56:02;18.60;1.00
4795;DHT22;2411;47.060;15.064;2024-03-23T14:58:28;18.70;1.00
4795;DHT22;2411;47.060;15.064;2024-03-23T15:01:08;18.70;1.00
4795;DHT22;2411;47.060;15.064;2024-03-23T15:03:36;18.40;1.00
4795;DHT22;2411;47.060;15.064;2024-03-23T15:06:02;18.20;1.00
4795;DHT22;2411;47.060;15.064;2024-03-23T15:08:28;18.00;1.00
4795;DHT22;2411;47.060;15.064;2024-03-23T15:10:55;17.90;1.00
4795;DHT22;2411;47.060;15.064;2024-03-23T15:13:24;17.50;1.00
4795;DHT22;2411;47.060;15.064;2024-03-23T15:15:50;17.40;1.00
4795;DHT22;2411;47.060;15.064;2024-03-23T15:18:18;17.40;1.00
4795;DHT22;2411;47.060;15.064;2024-03-23T15:20:55;17.30;1.00
4795;DHT22;2411;47.060;15.064;2024-03-23T15:23:21;17.10;1.00
4795;DHT22;2411;47.060;15.064;2024-03-23T15:26:14;17.00;1.00
4795;DHT22;2411;47.060;15.064;2024-03-23T15:28:41;16.60;1.00
4795;DHT22;2411;47.060;15.064;2024-03-23T15:31:28;16.20;1.00
4795;DHT22;2411;47.060;15.064;2024-03-23T15:33:55;15.70;1.00
4795;DHT22;2411;47.060;15.064;2024-03-23T15:36:21;15.20;1.00
4795;DHT22;2411;47.060;15.064;2024-03-23T15:38:47;14.70;1.00
4795;DHT22;2411;47.060;15.064;2024-03-23T15:41:15;14.20;1.00
4795;DHT22;2411;47.060;15.064;2024-03-23T15:43:41;13.70;1.00
4795;DHT22;2411;47.060;15.064;2024-03-23T15:46:07;12.90;1.00
4795;DHT22;2411;47.060;15.064;2024-03-23T15:48:33;12.70;1.00
4795;DHT22;2411;47.060;15.064;2024-03-23T15:51:02;12.40;1.00
4795;DHT22;2411;47.060;15.064;2024-03-23T15:53:30;12.10;1.00
4795;DHT22;2411;47.060;15.064;2024-03-23T15:56:03;11.60;1.00
4795;DHT22;2411;47.060;15.064;2024-03-23T15:58:31;10.90;1.00
4795;DHT22;2411;47.060;15.064;2024-03-23T16:00:58;11.00;1.00
4795;DHT22;2411;47.060;15.064;2024-03-23T16:03:25;10.60;1.00
4795;DHT22;2411;47.060;15.064;2024-03-23T16:05:58;10.40;1.00
4795;DHT22;2411;47.060;15.064;2024-03-23T16:08:25;10.10;1.00
4795;DHT22;2411;47.060;15.064;2024-03-23T16:10:52;9.90;1.00
4795;DHT22;2411;47.060;15.064;2024-03-23T16:13:19;9.00;1.00
4795;DHT22;2411;47.060;15.064;2024-03-23T16:15:45;8.40;1.00
4795;DHT22;2411;47.060;15.064;2024-03-23T16:18:11;8.10;1.00
4795;DHT22;2411;47.060;15.064;2024-03-23T16:20:40;8.10;1.00
4795;DHT22;2411;47.060;15.064;2024-03-23T16:23:09;8.10;1.00
4795;DHT22;2411;47.060;15.064;2024-03-23T16:25:35;8.00;1.00
4795;DHT22;2411;47.060;15.064;2024-03-23T16:28:04;7.90;1.00
4795;DHT22;2411;47.060;15.064;2024-03-23T16:30:30;7.80;1.00
4795;DHT22;2411;47.060;15.064;2024-03-23T16:32:56;7.70;1.00
4795;DHT22;2411;47.060;15.064;2024-03-23T16:35:21;7.50;1.00
4795;DHT22;2411;47.060;15.064;2024-03-23T16:37:47;7.30;1.00
4795;DHT22;2411;47.060;15.064;2024-03-23T16:40:13;7.30;1.00
4795;DHT22;2411;47.060;15.064;2024-03-23T16:42:39;7.30;1.00
4795;DHT22;2411;47.060;15.064;2024-03-23T16:45:08;7.30;1.00
4795;DHT22;2411;47.060;15.064;2024-03-23T16:47:34;7.20;1.00
4795;DHT22;2411;47.060;15.064;2024-03-23T16:50:00;7.10;1.00
4795;DHT22;2411;47.060;15.064;2024-03-23T16:52:26;7.00;1.00
4795;DHT22;2411;47.060;15.064;2024-03-23T16:54:52;6.90;1.00
4795;DHT22;2411;47.060;15.064;2024-03-23T16:57:18;6.70;1.00
4795;DHT22;2411;47.060;15.064;2024-03-23T16:59:44;6.30;1.00
4795;DHT22;2411;47.060;15.064;2024-03-23T17:02:10;6.30;1.00
4795;DHT22;2411;47.060;15.064;2024-03-23T17:04:36;6.30;1.00
4795;DHT22;2411;47.060;15.064;2024-03-23T17:07:03;6.00;1.00
4795;DHT22;2411;47.060;15.064;2024-03-23T17:09:29;6.00;1.00
4795;DHT22;2411;47.060;15.064;2024-03-23T17:11:57;6.00;1.00
4795;DHT22;2411;47.060;15.064;2024-03-23T17:14:23;6.10;1.00